sensor_id;sensor_type;location;lat;lon;timestamp;P1;durP1;ratioP1;P2;durP2;ratioP2
56667;SDS011;42542;48.360;10.958;2023-01-08T00:02:44;18.27;;;8.32;;
56667;SDS011;42542;48.360;10.958;2023-01-08T00:05:45;19.73;;;8.82;;
56667;SDS011;42542;48.360;10.958;2023-01-08T00:08:47;21.75;;;8.88;;
56667;SDS011;42542;48.360;10.958;2023-01-08T00:11:49;20.47;;;8.30;;
56667;SDS011;42542;48.360;10.958;2023-01-08T00:14:50;19.05;;;8.25;;
56667;SDS011;42542;48.360;10.958;2023-01-08T00:17:52;20.23;;;8.77;;
56667;SDS011;42542;48.360;10.958;2023-01-08T00:20:53;17.60;;;8.47;;
56667;SDS011;42542;48.360;10.958;2023-01-08T00:23:55;18.40;;;7.63;;
56667;SDS011;42542;48.360;10.958;2023-01-08T00:26:56;19.38;;;8.77;;
56667;SDS011;42542;48.360;10.958;2023-01-08T00:29:58;20.45;;;8.05;;
56667;SDS011;42542;48.360;10.958;2023-01-08T00:33:02;18.48;;;7.95;;
56667;SDS011;42542;48.360;10.958;2023-01-08T00:36:08;19.50;;;7.70;;
56667;SDS011;42542;48.360;10.958;2023-01-08T00:39:14;18.85;;;7.72;;
56667;SDS011;42542;48.360;10.958;2023-01-08T00:42:18;17.10;;;7.60;;
56667;SDS011;42542;48.360;10.958;2023-01-08T00:45:20;18.80;;;7.55;;
56667;SDS011;42542;48.360;10.958;2023-01-08T00:48:22;20.58;;;7.15;;
56667;SDS011;42542;48.360;10.958;2023-01-08T00:51:29;17.33;;;7.17;;
56667;SDS011;42542;48.360;10.958;2023-01-08T00:54:34;17.45;;;7.57;;
56667;SDS011;42542;48.360;10.958;2023-01-08T00:57:42;17.52;;;7.30;;
56667;SDS011;42542;48.360;10.958;2023-01-08T01:00:47;16.77;;;7.25;;
56667;SDS011;42542;48.360;10.958;2023-01-08T01:03:49;17.55;;;6.72;;
56667;SDS011;42542;48.360;10.958;2023-01-08T01:06:50;17.50;;;7.50;;
56667;SDS011;42542;48.360;10.958;2023-01-08T01:09:56;17.30;;;6.75;;
56667;SDS011;42542;48.360;10.958;2023-01-08T01:12:58;18.57;;;7.03;;
56667;SDS011;42542;48.360;10.958;2023-01-08T01:16:00;16.08;;;7.28;;
56667;SDS011;42542;48.360;10.958;2023-01-08T01:19:15;18.33;;;7.05;;
56667;SDS011;42542;48.360;10.958;2023-01-08T01:22:19;14.70;;;6.47;;
56667;SDS011;42542;48.360;10.958;2023-01-08T01:25:23;17.20;;;6.85;;
56667;SDS011;42542;48.360;10.958;2023-01-08T01:28:25;15.95;;;6.97;;
56667;SDS011;42542;48.360;10.958;2023-01-08T01:31:27;14.10;;;6.07;;
56667;SDS011;42542;48.360;10.958;2023-01-08T01:34:31;15.55;;;6.72;;
56667;SDS011;42542;48.360;10.958;2023-01-08T01:37:32;17.80;;;6.60;;
56667;SDS011;42542;48.360;10.958;2023-01-08T01:40:34;14.27;;;6.45;;
56667;SDS011;42542;48.360;10.958;2023-01-08T01:43:39;15.60;;;6.13;;
56667;SDS011;42542;48.360;10.958;2023-01-08T01:46:43;17.27;;;6.57;;
56667;SDS011;42542;48.360;10.958;2023-01-08T01:49:49;14.50;;;5.90;;
56667;SDS011;42542;48.360;10.958;2023-01-08T01:52:58;16.60;;;6.47;;
56667;SDS011;42542;48.360;10.958;2023-01-08T01:56:04;14.27;;;6.50;;
56667;SDS011;42542;48.360;10.958;2023-01-08T01:59:06;15.13;;;6.20;;
56667;SDS011;42542;48.360;10.958;2023-01-08T02:02:08;15.50;;;6.15;;
56667;SDS011;42542;48.360;10.958;2023-01-08T02:05:10;17.35;;;6.28;;
56667;SDS011;42542;48.360;10.958;2023-01-08T02:08:12;16.00;;;6.75;;
56667;SDS011;42542;48.360;10.958;2023-01-08T02:11:40;15.30;;;5.95;;
56667;SDS011;42542;48.360;10.958;2023-01-08T02:14:52;14.10;;;5.80;;
56667;SDS011;42542;48.360;10.958;2023-01-08T02:18:09;13.55;;;5.38;;
56667;SDS011;42542;48.360;10.958;2023-01-08T02:21:28;14.27;;;5.65;;
56667;SDS011;42542;48.360;10.958;2023-01-08T02:24:49;12.83;;;5.37;;
56667;SDS011;42542;48.360;10.958;2023-01-08T02:27:54;13.45;;;5.40;;
56667;SDS011;42542;48.360;10.958;2023-01-08T02:31:00;14.43;;;5.65;;
56667;SDS011;42542;48.360;10.958;2023-01-08T02:34:03;12.35;;;5.35;;
56667;SDS011;42542;48.360;10.958;2023-01-08T02:37:04;14.93;;;5.40;;
56667;SDS011;42542;48.360;10.958;2023-01-08T02:46:44;12.03;;;4.83;;
56667;SDS011;42542;48.360;10.958;2023-01-08T02:49:51;12.50;;;5.00;;
56667;SDS011;42542;48.360;10.958;2023-01-08T02:56:12;12.17;;;4.77;;
56667;SDS011;42542;48.360;10.958;2023-01-08T02:59:17;13.35;;;4.97;;
56667;SDS011;42542;48.360;10.958;2023-01-08T03:02:20;11.07;;;4.70;;
56667;SDS011;42542;48.360;10.958;2023-01-08T03:05:24;11.63;;;4.65;;
56667;SDS011;42542;48.360;10.958;2023-01-08T03:08:27;12.05;;;4.68;;
56667;SDS011;42542;48.360;10.958;2023-01-08T03:11:40;12.02;;;4.90;;
56667;SDS011;42542;48.360;10.958;2023-01-08T03:14:57;14.40;;;4.95;;
56667;SDS011;42542;48.360;10.958;2023-01-08T03:18:03;11.73;;;4.80;;
56667;SDS011;42542;48.360;10.958;2023-01-08T03:21:10;11.55;;;4.60;;
56667;SDS011;42542;48.360;10.958;2023-01-08T03:24:15;11.95;;;5.10;;
56667;SDS011;42542;48.360;10.958;2023-01-08T03:27:21;12.17;;;4.83;;
56667;SDS011;42542;48.360;10.958;2023-01-08T03:30:27;11.35;;;4.55;;
56667;SDS011;42542;48.360;10.958;2023-01-08T03:33:30;12.43;;;4.68;;
56667;SDS011;42542;48.360;10.958;2023-01-08T03:36:33;12.07;;;5.00;;
56667;SDS011;42542;48.360;10.958;2023-01-08T03:39:43;10.73;;;4.40;;
56667;SDS011;42542;48.360;10.958;2023-01-08T03:42:49;14.43;;;4.85;;
56667;SDS011;42542;48.360;10.958;2023-01-08T03:45:52;13.65;;;4.65;;
56667;SDS011;42542;48.360;10.958;2023-01-08T03:49:00;11.47;;;4.53;;
56667;SDS011;42542;48.360;10.958;2023-01-08T03:52:05;11.80;;;4.57;;
56667;SDS011;42542;48.360;10.958;2023-01-08T03:55:06;11.05;;;4.60;;
56667;SDS011;42542;48.360;10.958;2023-01-08T03:58:08;11.40;;;4.60;;
56667;SDS011;42542;48.360;10.958;2023-01-08T04:01:10;11.40;;;4.68;;
56667;SDS011;42542;48.360;10.958;2023-01-08T04:04:11;10.70;;;4.63;;
56667;SDS011;42542;48.360;10.958;2023-01-08T04:07:13;10.93;;;4.07;;
56667;SDS011;42542;48.360;10.958;2023-01-08T04:10:15;12.25;;;4.55;;
56667;SDS011;42542;48.360;10.958;2023-01-08T04:13:16;10.20;;;4.57;;
56667;SDS011;42542;48.360;10.958;2023-01-08T04:16:18;10.27;;;4.10;;
56667;SDS011;42542;48.360;10.958;2023-01-08T04:19:20;10.67;;;4.70;;
56667;SDS011;42542;48.360;10.958;2023-01-08T04:22:21;11.90;;;4.70;;
56667;SDS011;42542;48.360;10.958;2023-01-08T04:25:23;12.15;;;4.45;;
56667;SDS011;42542;48.360;10.958;2023-01-08T04:28:24;11.90;;;4.37;;
56667;SDS011;42542;48.360;10.958;2023-01-08T04:31:26;11.90;;;4.72;;
56667;SDS011;42542;48.360;10.958;2023-01-08T04:34:27;10.75;;;4.35;;
56667;SDS011;42542;48.360;10.958;2023-01-08T04:37:29;10.60;;;4.38;;
56667;SDS011;42542;48.360;10.958;2023-01-08T04:40:31;10.98;;;4.38;;
56667;SDS011;42542;48.360;10.958;2023-01-08T04:43:34;9.73;;;4.15;;
56667;SDS011;42542;48.360;10.958;2023-01-08T04:46:35;10.73;;;4.88;;
56667;SDS011;42542;48.360;10.958;2023-01-08T04:49:38;11.57;;;4.30;;
56667;SDS011;42542;48.360;10.958;2023-01-08T04:52:39;11.52;;;4.05;;
56667;SDS011;42542;48.360;10.958;2023-01-08T04:55:41;11.02;;;4.28;;
56667;SDS011;42542;48.360;10.958;2023-01-08T04:58:42;11.97;;;4.30;;
56667;SDS011;42542;48.360;10.958;2023-01-08T05:01:44;11.07;;;4.25;;
56667;SDS011;42542;48.360;10.958;2023-01-08T05:04:46;11.07;;;4.45;;
56667;SDS011;42542;48.360;10.958;2023-01-08T05:07:48;12.48;;;4.30;;
56667;SDS011;42542;48.360;10.958;2023-01-08T05:10:49;11.90;;;4.40;;
56667;SDS011;42542;48.360;10.958;2023-01-08T05:13:51;11.73;;;3.92;;
56667;SDS011;42542;48.360;10.958;2023-01-08T05:16:53;10.80;;;4.43;;
56667;SDS011;42542;48.360;10.958;2023-01-08T05:19:54;10.13;;;4.27;;
56667;SDS011;42542;48.360;10.958;2023-01-08T05:22:56;11.93;;;4.28;;
56667;SDS011;42542;48.360;10.958;2023-01-08T05:25:59;11.27;;;4.07;;
56667;SDS011;42542;48.360;10.958;2023-01-08T05:29:02;9.47;;;3.80;;
56667;SDS011;42542;48.360;10.958;2023-01-08T05:32:05;9.23;;;3.72;;
56667;SDS011;42542;48.360;10.958;2023-01-08T05:35:14;10.68;;;4.30;;
56667;SDS011;42542;48.360;10.958;2023-01-08T05:38:15;10.75;;;4.07;;
56667;SDS011;42542;48.360;10.958;2023-01-08T05:41:17;10.93;;;3.97;;
56667;SDS011;42542;48.360;10.958;2023-01-08T05:44:18;9.70;;;3.80;;
56667;SDS011;42542;48.360;10.958;2023-01-08T05:47:20;11.05;;;4.03;;
56667;SDS011;42542;48.360;10.958;2023-01-08T05:50:22;9.73;;;3.80;;
56667;SDS011;42542;48.360;10.958;2023-01-08T05:53:24;9.18;;;3.80;;
56667;SDS011;42542;48.360;10.958;2023-01-08T05:56:25;10.77;;;3.97;;
56667;SDS011;42542;48.360;10.958;2023-01-08T05:59:27;8.27;;;3.47;;
56667;SDS011;42542;48.360;10.958;2023-01-08T06:02:28;10.32;;;4.03;;
56667;SDS011;42542;48.360;10.958;2023-01-08T06:05:31;9.57;;;3.53;;
56667;SDS011;42542;48.360;10.958;2023-01-08T06:08:33;10.63;;;4.10;;
56667;SDS011;42542;48.360;10.958;2023-01-08T06:11:35;10.32;;;3.83;;
56667;SDS011;42542;48.360;10.958;2023-01-08T06:14:37;10.50;;;4.00;;
56667;SDS011;42542;48.360;10.958;2023-01-08T06:17:38;9.38;;;3.80;;
56667;SDS011;42542;48.360;10.958;2023-01-08T06:20:40;10.83;;;3.80;;
56667;SDS011;42542;48.360;10.958;2023-01-08T06:23:42;10.73;;;4.13;;
56667;SDS011;42542;48.360;10.958;2023-01-08T06:26:44;9.98;;;3.78;;
56667;SDS011;42542;48.360;10.958;2023-01-08T06:29:45;10.00;;;3.80;;
56667;SDS011;42542;48.360;10.958;2023-01-08T06:32:48;9.70;;;3.53;;
56667;SDS011;42542;48.360;10.958;2023-01-08T06:35:49;9.85;;;3.58;;
56667;SDS011;42542;48.360;10.958;2023-01-08T06:38:51;11.15;;;3.80;;
56667;SDS011;42542;48.360;10.958;2023-01-08T06:41:53;10.43;;;3.92;;
56667;SDS011;42542;48.360;10.958;2023-01-08T06:44:56;11.23;;;3.85;;
56667;SDS011;42542;48.360;10.958;2023-01-08T06:48:01;10.32;;;3.78;;
56667;SDS011;42542;48.360;10.958;2023-01-08T06:51:04;9.20;;;3.63;;
56667;SDS011;42542;48.360;10.958;2023-01-08T06:54:05;10.15;;;3.90;;
56667;SDS011;42542;48.360;10.958;2023-01-08T06:57:07;9.52;;;3.70;;
56667;SDS011;42542;48.360;10.958;2023-01-08T07:00:09;9.30;;;3.53;;
56667;SDS011;42542;48.360;10.958;2023-01-08T07:03:11;8.90;;;3.50;;
56667;SDS011;42542;48.360;10.958;2023-01-08T07:06:14;9.13;;;3.50;;
56667;SDS011;42542;48.360;10.958;2023-01-08T07:09:17;9.05;;;3.55;;
56667;SDS011;42542;48.360;10.958;2023-01-08T07:12:18;9.18;;;3.70;;
56667;SDS011;42542;48.360;10.958;2023-01-08T07:15:20;9.55;;;3.80;;
56667;SDS011;42542;48.360;10.958;2023-01-08T07:18:22;8.70;;;3.67;;
56667;SDS011;42542;48.360;10.958;2023-01-08T07:21:25;9.47;;;3.67;;
56667;SDS011;42542;48.360;10.958;2023-01-08T07:24:26;9.15;;;3.17;;
56667;SDS011;42542;48.360;10.958;2023-01-08T07:27:28;10.27;;;4.10;;
56667;SDS011;42542;48.360;10.958;2023-01-08T07:30:30;10.03;;;3.93;;
56667;SDS011;42542;48.360;10.958;2023-01-08T07:33:32;10.18;;;4.18;;
56667;SDS011;42542;48.360;10.958;2023-01-08T07:36:34;10.55;;;4.20;;
56667;SDS011;42542;48.360;10.958;2023-01-08T07:39:36;10.95;;;3.97;;
56667;SDS011;42542;48.360;10.958;2023-01-08T07:42:38;10.52;;;3.50;;
56667;SDS011;42542;48.360;10.958;2023-01-08T07:45:40;8.38;;;3.50;;
56667;SDS011;42542;48.360;10.958;2023-01-08T07:48:56;10.38;;;4.55;;
56667;SDS011;42542;48.360;10.958;2023-01-08T07:51:58;9.77;;;3.63;;
56667;SDS011;42542;48.360;10.958;2023-01-08T07:55:00;10.50;;;4.15;;
56667;SDS011;42542;48.360;10.958;2023-01-08T07:58:05;9.98;;;4.28;;
56667;SDS011;42542;48.360;10.958;2023-01-08T08:01:16;11.67;;;4.30;;
56667;SDS011;42542;48.360;10.958;2023-01-08T08:04:18;9.23;;;3.80;;
56667;SDS011;42542;48.360;10.958;2023-01-08T08:07:19;11.70;;;4.25;;
56667;SDS011;42542;48.360;10.958;2023-01-08T08:10:21;12.13;;;5.03;;
56667;SDS011;42542;48.360;10.958;2023-01-08T08:13:23;13.30;;;5.10;;
56667;SDS011;42542;48.360;10.958;2023-01-08T08:16:25;15.20;;;5.72;;
56667;SDS011;42542;48.360;10.958;2023-01-08T08:19:27;10.05;;;4.32;;
56667;SDS011;42542;48.360;10.958;2023-01-08T08:22:28;11.23;;;3.70;;
56667;SDS011;42542;48.360;10.958;2023-01-08T08:25:30;8.40;;;3.20;;
56667;SDS011;42542;48.360;10.958;2023-01-08T08:28:33;8.38;;;3.20;;
56667;SDS011;42542;48.360;10.958;2023-01-08T08:31:35;8.23;;;3.10;;
56667;SDS011;42542;48.360;10.958;2023-01-08T08:34:36;9.57;;;3.33;;
56667;SDS011;42542;48.360;10.958;2023-01-08T08:37:38;10.82;;;3.90;;
56667;SDS011;42542;48.360;10.958;2023-01-08T08:40:41;10.55;;;4.72;;
56667;SDS011;42542;48.360;10.958;2023-01-08T08:43:42;12.13;;;4.75;;
56667;SDS011;42542;48.360;10.958;2023-01-08T08:46:44;12.32;;;5.40;;
56667;SDS011;42542;48.360;10.958;2023-01-08T08:49:46;11.15;;;5.18;;
56667;SDS011;42542;48.360;10.958;2023-01-08T08:52:47;13.63;;;5.50;;
56667;SDS011;42542;48.360;10.958;2023-01-08T08:55:49;11.75;;;5.20;;
56667;SDS011;42542;48.360;10.958;2023-01-08T08:58:51;14.52;;;5.32;;
56667;SDS011;42542;48.360;10.958;2023-01-08T09:01:53;13.20;;;5.03;;
56667;SDS011;42542;48.360;10.958;2023-01-08T09:04:55;9.43;;;4.28;;
56667;SDS011;42542;48.360;10.958;2023-01-08T09:07:57;10.57;;;4.10;;
56667;SDS011;42542;48.360;10.958;2023-01-08T09:11:00;10.43;;;4.05;;
56667;SDS011;42542;48.360;10.958;2023-01-08T09:14:02;11.00;;;4.88;;
56667;SDS011;42542;48.360;10.958;2023-01-08T09:17:04;9.80;;;4.03;;
56667;SDS011;42542;48.360;10.958;2023-01-08T09:20:06;18.50;;;5.25;;
56667;SDS011;42542;48.360;10.958;2023-01-08T09:23:09;11.20;;;4.40;;
56667;SDS011;42542;48.360;10.958;2023-01-08T09:26:11;10.05;;;4.18;;
56667;SDS011;42542;48.360;10.958;2023-01-08T09:29:13;11.30;;;4.57;;
56667;SDS011;42542;48.360;10.958;2023-01-08T09:32:14;19.63;;;7.33;;
56667;SDS011;42542;48.360;10.958;2023-01-08T09:35:17;16.55;;;6.80;;
56667;SDS011;42542;48.360;10.958;2023-01-08T09:38:19;18.88;;;7.63;;
56667;SDS011;42542;48.360;10.958;2023-01-08T09:41:23;15.57;;;6.35;;
56667;SDS011;42542;48.360;10.958;2023-01-08T09:44:37;15.38;;;6.38;;
56667;SDS011;42542;48.360;10.958;2023-01-08T09:47:43;12.63;;;5.50;;
56667;SDS011;42542;48.360;10.958;2023-01-08T09:50:46;12.73;;;5.47;;
56667;SDS011;42542;48.360;10.958;2023-01-08T09:53:51;10.77;;;4.03;;
56667;SDS011;42542;48.360;10.958;2023-01-08T09:56:56;10.38;;;4.15;;
56667;SDS011;42542;48.360;10.958;2023-01-08T09:59:59;8.40;;;3.35;;
56667;SDS011;42542;48.360;10.958;2023-01-08T10:03:01;10.07;;;3.77;;
56667;SDS011;42542;48.360;10.958;2023-01-08T10:06:11;9.82;;;4.00;;
56667;SDS011;42542;48.360;10.958;2023-01-08T10:09:15;8.32;;;3.60;;
56667;SDS011;42542;48.360;10.958;2023-01-08T10:12:25;9.02;;;3.20;;
56667;SDS011;42542;48.360;10.958;2023-01-08T10:15:29;9.48;;;3.38;;
56667;SDS011;42542;48.360;10.958;2023-01-08T10:18:32;12.10;;;3.90;;
56667;SDS011;42542;48.360;10.958;2023-01-08T10:21:36;10.32;;;4.20;;
56667;SDS011;42542;48.360;10.958;2023-01-08T10:24:41;11.50;;;4.20;;
56667;SDS011;42542;48.360;10.958;2023-01-08T10:27:45;10.88;;;4.10;;
56667;SDS011;42542;48.360;10.958;2023-01-08T10:30:48;10.35;;;3.70;;
56667;SDS011;42542;48.360;10.958;2023-01-08T10:33:52;10.90;;;4.13;;
56667;SDS011;42542;48.360;10.958;2023-01-08T10:36:54;10.40;;;4.53;;
56667;SDS011;42542;48.360;10.958;2023-01-08T10:43:28;12.07;;;4.50;;
56667;SDS011;42542;48.360;10.958;2023-01-08T10:46:44;12.18;;;5.22;;
56667;SDS011;42542;48.360;10.958;2023-01-08T10:49:51;11.65;;;5.30;;
56667;SDS011;42542;48.360;10.958;2023-01-08T10:52:54;12.40;;;4.72;;
56667;SDS011;42542;48.360;10.958;2023-01-08T10:56:02;10.70;;;4.23;;
56667;SDS011;42542;48.360;10.958;2023-01-08T10:59:05;11.82;;;4.40;;
56667;SDS011;42542;48.360;10.958;2023-01-08T11:02:10;14.23;;;5.20;;
56667;SDS011;42542;48.360;10.958;2023-01-08T11:05:27;9.93;;;3.70;;
56667;SDS011;42542;48.360;10.958;2023-01-08T11:08:33;14.77;;;4.10;;
56667;SDS011;42542;48.360;10.958;2023-01-08T11:11:35;12.85;;;4.47;;
56667;SDS011;42542;48.360;10.958;2023-01-08T11:14:39;14.18;;;5.53;;
56667;SDS011;42542;48.360;10.958;2023-01-08T11:17:40;16.33;;;5.65;;
56667;SDS011;42542;48.360;10.958;2023-01-08T11:20:43;14.55;;;6.10;;
56667;SDS011;42542;48.360;10.958;2023-01-08T11:23:46;13.07;;;5.32;;
56667;SDS011;42542;48.360;10.958;2023-01-08T11:27:00;11.37;;;4.70;;
56667;SDS011;42542;48.360;10.958;2023-01-08T11:30:12;10.63;;;4.65;;
56667;SDS011;42542;48.360;10.958;2023-01-08T11:33:22;10.68;;;4.18;;
56667;SDS011;42542;48.360;10.958;2023-01-08T11:36:33;10.80;;;4.13;;
56667;SDS011;42542;48.360;10.958;2023-01-08T11:39:40;11.68;;;4.50;;
56667;SDS011;42542;48.360;10.958;2023-01-08T12:03:02;11.32;;;4.50;;
56667;SDS011;42542;48.360;10.958;2023-01-08T12:09:44;11.00;;;4.40;;
56667;SDS011;42542;48.360;10.958;2023-01-08T12:19:42;12.27;;;5.35;;
56667;SDS011;42542;48.360;10.958;2023-01-08T12:26:06;14.95;;;7.10;;
56667;SDS011;42542;48.360;10.958;2023-01-08T12:32:54;17.27;;;7.00;;
56667;SDS011;42542;48.360;10.958;2023-01-08T12:36:07;11.40;;;5.15;;
56667;SDS011;42542;48.360;10.958;2023-01-08T12:39:14;12.52;;;5.05;;
56667;SDS011;42542;48.360;10.958;2023-01-08T12:42:23;12.10;;;5.27;;
56667;SDS011;42542;48.360;10.958;2023-01-08T12:45:31;9.48;;;4.68;;
56667;SDS011;42542;48.360;10.958;2023-01-08T12:48:36;11.02;;;4.70;;
56667;SDS011;42542;48.360;10.958;2023-01-08T12:51:49;11.15;;;5.25;;
56667;SDS011;42542;48.360;10.958;2023-01-08T13:04:52;13.20;;;5.47;;
56667;SDS011;42542;48.360;10.958;2023-01-08T13:11:35;11.30;;;5.15;;
56667;SDS011;42542;48.360;10.958;2023-01-08T13:14:42;12.10;;;5.20;;
56667;SDS011;42542;48.360;10.958;2023-01-08T13:17:48;12.90;;;5.75;;
56667;SDS011;42542;48.360;10.958;2023-01-08T13:20:57;12.02;;;5.85;;
56667;SDS011;42542;48.360;10.958;2023-01-08T13:24:05;13.93;;;6.47;;
56667;SDS011;42542;48.360;10.958;2023-01-08T13:27:29;13.50;;;6.20;;
56667;SDS011;42542;48.360;10.958;2023-01-08T13:30:32;14.05;;;5.75;;
56667;SDS011;42542;48.360;10.958;2023-01-08T13:36:36;15.57;;;6.07;;
56667;SDS011;42542;48.360;10.958;2023-01-08T13:39:38;11.50;;;5.43;;
56667;SDS011;42542;48.360;10.958;2023-01-08T13:42:39;12.45;;;5.50;;
56667;SDS011;42542;48.360;10.958;2023-01-08T13:45:41;12.30;;;5.47;;
56667;SDS011;42542;48.360;10.958;2023-01-08T13:52:26;13.07;;;5.70;;
56667;SDS011;42542;48.360;10.958;2023-01-08T13:55:42;12.43;;;5.78;;
56667;SDS011;42542;48.360;10.958;2023-01-08T13:58:58;13.73;;;6.05;;
56667;SDS011;42542;48.360;10.958;2023-01-08T14:02:00;13.40;;;6.75;;
56667;SDS011;42542;48.360;10.958;2023-01-08T14:05:10;15.13;;;6.78;;
56667;SDS011;42542;48.360;10.958;2023-01-08T14:08:22;18.53;;;7.90;;
56667;SDS011;42542;48.360;10.958;2023-01-08T14:11:28;22.80;;;9.02;;
56667;SDS011;42542;48.360;10.958;2023-01-08T14:14:34;22.83;;;10.95;;
56667;SDS011;42542;48.360;10.958;2023-01-08T14:17:41;25.17;;;10.73;;
56667;SDS011;42542;48.360;10.958;2023-01-08T14:20:46;26.55;;;10.32;;
56667;SDS011;42542;48.360;10.958;2023-01-08T14:23:56;22.40;;;10.30;;
56667;SDS011;42542;48.360;10.958;2023-01-08T14:26:58;25.88;;;10.82;;
56667;SDS011;42542;48.360;10.958;2023-01-08T14:30:00;23.65;;;11.52;;
56667;SDS011;42542;48.360;10.958;2023-01-08T14:33:02;23.05;;;11.93;;
56667;SDS011;42542;48.360;10.958;2023-01-08T14:36:05;26.20;;;13.20;;
56667;SDS011;42542;48.360;10.958;2023-01-08T14:42:40;26.70;;;12.55;;
56667;SDS011;42542;48.360;10.958;2023-01-08T14:45:47;25.10;;;12.07;;
56667;SDS011;42542;48.360;10.958;2023-01-08T14:48:53;29.20;;;13.83;;
56667;SDS011;42542;48.360;10.958;2023-01-08T14:51:57;27.67;;;12.70;;
56667;SDS011;42542;48.360;10.958;2023-01-08T14:55:00;25.70;;;10.98;;
56667;SDS011;42542;48.360;10.958;2023-01-08T14:58:04;20.80;;;8.75;;
56667;SDS011;42542;48.360;10.958;2023-01-08T15:01:16;17.80;;;7.85;;
56667;SDS011;42542;48.360;10.958;2023-01-08T15:04:22;17.98;;;8.27;;
56667;SDS011;42542;48.360;10.958;2023-01-08T15:07:24;17.75;;;8.65;;
56667;SDS011;42542;48.360;10.958;2023-01-08T15:10:31;20.07;;;9.13;;
56667;SDS011;42542;48.360;10.958;2023-01-08T15:13:34;25.25;;;11.10;;
56667;SDS011;42542;48.360;10.958;2023-01-08T15:16:39;28.13;;;11.70;;
56667;SDS011;42542;48.360;10.958;2023-01-08T15:19:45;36.50;;;16.67;;
56667;SDS011;42542;48.360;10.958;2023-01-08T15:22:51;39.10;;;16.83;;
56667;SDS011;42542;48.360;10.958;2023-01-08T15:25:53;24.88;;;10.60;;
56667;SDS011;42542;48.360;10.958;2023-01-08T15:28:57;26.58;;;11.55;;
56667;SDS011;42542;48.360;10.958;2023-01-08T15:35:13;22.13;;;9.77;;
56667;SDS011;42542;48.360;10.958;2023-01-08T15:38:17;37.83;;;16.73;;
56667;SDS011;42542;48.360;10.958;2023-01-08T15:41:22;29.93;;;14.03;;
56667;SDS011;42542;48.360;10.958;2023-01-08T15:44:43;25.90;;;12.80;;
56667;SDS011;42542;48.360;10.958;2023-01-08T15:47:44;16.25;;;7.70;;
56667;SDS011;42542;48.360;10.958;2023-01-08T15:50:46;19.37;;;7.97;;
56667;SDS011;42542;48.360;10.958;2023-01-08T15:53:48;16.73;;;8.13;;
56667;SDS011;42542;48.360;10.958;2023-01-08T15:56:49;19.70;;;8.10;;
56667;SDS011;42542;48.360;10.958;2023-01-08T15:59:51;27.83;;;10.20;;
56667;SDS011;42542;48.360;10.958;2023-01-08T16:02:53;36.22;;;12.20;;
56667;SDS011;42542;48.360;10.958;2023-01-08T16:05:55;31.40;;;12.00;;
56667;SDS011;42542;48.360;10.958;2023-01-08T16:08:57;32.83;;;13.27;;
56667;SDS011;42542;48.360;10.958;2023-01-08T16:12:00;30.03;;;13.53;;
56667;SDS011;42542;48.360;10.958;2023-01-08T16:15:02;37.17;;;14.68;;
56667;SDS011;42542;48.360;10.958;2023-01-08T16:18:04;35.72;;;14.35;;
56667;SDS011;42542;48.360;10.958;2023-01-08T16:21:06;46.47;;;14.97;;
56667;SDS011;42542;48.360;10.958;2023-01-08T16:24:10;41.15;;;14.80;;
56667;SDS011;42542;48.360;10.958;2023-01-08T16:27:13;48.67;;;18.85;;
56667;SDS011;42542;48.360;10.958;2023-01-08T16:30:15;38.97;;;17.08;;
56667;SDS011;42542;48.360;10.958;2023-01-08T16:33:17;48.25;;;18.13;;
56667;SDS011;42542;48.360;10.958;2023-01-08T16:36:18;45.50;;;18.60;;
56667;SDS011;42542;48.360;10.958;2023-01-08T16:39:20;31.98;;;15.20;;
56667;SDS011;42542;48.360;10.958;2023-01-08T16:42:22;26.10;;;12.40;;
56667;SDS011;42542;48.360;10.958;2023-01-08T16:45:24;27.65;;;12.90;;
56667;SDS011;42542;48.360;10.958;2023-01-08T16:48:25;23.23;;;11.77;;
56667;SDS011;42542;48.360;10.958;2023-01-08T16:51:29;22.87;;;12.63;;
56667;SDS011;42542;48.360;10.958;2023-01-08T16:54:31;21.98;;;11.90;;
56667;SDS011;42542;48.360;10.958;2023-01-08T16:57:33;20.17;;;10.40;;
56667;SDS011;42542;48.360;10.958;2023-01-08T17:00:36;21.92;;;10.88;;
56667;SDS011;42542;48.360;10.958;2023-01-08T17:03:39;20.58;;;9.50;;
56667;SDS011;42542;48.360;10.958;2023-01-08T17:06:40;20.58;;;9.85;;
56667;SDS011;42542;48.360;10.958;2023-01-08T17:09:42;17.60;;;8.45;;
56667;SDS011;42542;48.360;10.958;2023-01-08T17:12:43;19.50;;;7.27;;
56667;SDS011;42542;48.360;10.958;2023-01-08T17:15:45;16.88;;;7.63;;
56667;SDS011;42542;48.360;10.958;2023-01-08T17:18:47;16.25;;;7.60;;
56667;SDS011;42542;48.360;10.958;2023-01-08T17:21:49;17.97;;;9.00;;
56667;SDS011;42542;48.360;10.958;2023-01-08T17:24:50;22.83;;;9.07;;
56667;SDS011;42542;48.360;10.958;2023-01-08T17:27:52;17.13;;;8.63;;
56667;SDS011;42542;48.360;10.958;2023-01-08T17:31:01;17.67;;;7.93;;
56667;SDS011;42542;48.360;10.958;2023-01-08T17:34:09;18.05;;;8.95;;
56667;SDS011;42542;48.360;10.958;2023-01-08T17:37:12;20.58;;;10.27;;
56667;SDS011;42542;48.360;10.958;2023-01-08T17:40:14;30.58;;;14.75;;
56667;SDS011;42542;48.360;10.958;2023-01-08T17:43:15;31.93;;;15.17;;
56667;SDS011;42542;48.360;10.958;2023-01-08T17:46:17;25.17;;;11.70;;
56667;SDS011;42542;48.360;10.958;2023-01-08T17:49:19;26.05;;;11.95;;
56667;SDS011;42542;48.360;10.958;2023-01-08T17:52:21;28.60;;;12.90;;
56667;SDS011;42542;48.360;10.958;2023-01-08T17:55:24;28.25;;;13.35;;
56667;SDS011;42542;48.360;10.958;2023-01-08T17:58:26;28.13;;;13.63;;
56667;SDS011;42542;48.360;10.958;2023-01-08T18:01:28;21.52;;;9.93;;
56667;SDS011;42542;48.360;10.958;2023-01-08T18:04:30;17.25;;;8.57;;
56667;SDS011;42542;48.360;10.958;2023-01-08T18:07:33;17.83;;;7.90;;
56667;SDS011;42542;48.360;10.958;2023-01-08T18:10:35;16.10;;;7.30;;
56667;SDS011;42542;48.360;10.958;2023-01-08T18:13:37;16.23;;;6.80;;
56667;SDS011;42542;48.360;10.958;2023-01-08T18:16:39;18.75;;;7.68;;
56667;SDS011;42542;48.360;10.958;2023-01-08T18:19:45;16.60;;;7.70;;
56667;SDS011;42542;48.360;10.958;2023-01-08T18:22:48;18.10;;;8.17;;
56667;SDS011;42542;48.360;10.958;2023-01-08T18:25:51;20.67;;;9.25;;
56667;SDS011;42542;48.360;10.958;2023-01-08T18:28:53;29.42;;;12.18;;
56667;SDS011;42542;48.360;10.958;2023-01-08T18:31:54;36.33;;;14.27;;
56667;SDS011;42542;48.360;10.958;2023-01-08T18:34:56;40.33;;;16.45;;
56667;SDS011;42542;48.360;10.958;2023-01-08T18:37:57;36.00;;;15.25;;
56667;SDS011;42542;48.360;10.958;2023-01-08T18:40:59;31.02;;;12.55;;
56667;SDS011;42542;48.360;10.958;2023-01-08T18:44:02;26.13;;;11.17;;
56667;SDS011;42542;48.360;10.958;2023-01-08T18:47:04;24.80;;;10.98;;
56667;SDS011;42542;48.360;10.958;2023-01-08T18:50:06;23.30;;;10.00;;
56667;SDS011;42542;48.360;10.958;2023-01-08T18:53:09;21.77;;;9.57;;
56667;SDS011;42542;48.360;10.958;2023-01-08T18:56:18;21.58;;;9.40;;
56667;SDS011;42542;48.360;10.958;2023-01-08T18:59:26;21.67;;;9.93;;
56667;SDS011;42542;48.360;10.958;2023-01-08T19:02:28;21.60;;;10.15;;
56667;SDS011;42542;48.360;10.958;2023-01-08T19:05:42;20.80;;;9.18;;
56667;SDS011;42542;48.360;10.958;2023-01-08T19:08:44;21.10;;;9.20;;
56667;SDS011;42542;48.360;10.958;2023-01-08T19:11:46;21.00;;;9.18;;
56667;SDS011;42542;48.360;10.958;2023-01-08T19:14:48;26.10;;;9.50;;